sensor_id;sensor_type;location;lat;lon;timestamp;temperature;humidity
8313;DHT22;4194;43.408;24.626;2024-02-26T00:01:41;9.00;99.90
8313;DHT22;4194;43.408;24.626;2024-02-26T00:04:09;9.00;99.90
8313;DHT22;4194;43.408;24.626;2024-02-26T00:06:35;9.00;99.90
8313;DHT22;4194;43.408;24.626;2024-02-26T00:09:01;9.10;99.90
8313;DHT22;4194;43.408;24.626;2024-02-26T00:11:28;8.90;99.90
8313;DHT22;4194;43.408;24.626;2024-02-26T00:13:54;9.00;99.90
8313;DHT22;4194;43.408;24.626;2024-02-26T00:16:19;9.00;99.90
8313;DHT22;4194;43.408;24.626;2024-02-26T00:18:45;9.10;99.90
8313;DHT22;4194;43.408;24.626;2024-02-26T00:21:11;8.80;99.90
8313;DHT22;4194;43.408;24.626;2024-02-26T00:23:37;9.20;99.90
8313;DHT22;4194;43.408;24.626;2024-02-26T00:26:03;8.70;99.90
8313;DHT22;4194;43.408;24.626;2024-02-26T00:28:29;8.70;99.90
8313;DHT22;4194;43.408;24.626;2024-02-26T00:30:54;9.00;99.90
8313;DHT22;4194;43.408;24.626;2024-02-26T00:33:21;8.70;99.90
8313;DHT22;4194;43.408;24.626;2024-02-26T00:35:48;8.60;99.90
8313;DHT22;4194;43.408;24.626;2024-02-26T00:38:14;8.60;99.90
8313;DHT22;4194;43.408;24.626;2024-02-26T00:40:40;8.60;99.90
8313;DHT22;4194;43.408;24.626;2024-02-26T00:43:06;9.40;99.90
8313;DHT22;4194;43.408;24.626;2024-02-26T00:45:32;8.70;99.90
8313;DHT22;4194;43.408;24.626;2024-02-26T00:47:58;8.30;99.90
8313;DHT22;4194;43.408;24.626;2024-02-26T00:50:26;8.10;99.90
8313;DHT22;4194;43.408;24.626;2024-02-26T00:52:52;9.20;99.90
8313;DHT22;4194;43.408;24.626;2024-02-26T00:55:18;8.50;99.90
8313;DHT22;4194;43.408;24.626;2024-02-26T00:57:44;8.60;99.90
8313;DHT22;4194;43.408;24.626;2024-02-26T01:00:10;8.40;99.90
8313;DHT22;4194;43.408;24.626;2024-02-26T01:02:36;8.40;99.90
8313;DHT22;4194;43.408;24.626;2024-02-26T01:05:02;8.50;99.90
8313;DHT22;4194;43.408;24.626;2024-02-26T01:07:28;9.20;99.90
8313;DHT22;4194;43.408;24.626;2024-02-26T01:09:53;8.50;99.90
8313;DHT22;4194;43.408;24.626;2024-02-26T01:12:19;8.50;99.90
8313;DHT22;4194;43.408;24.626;2024-02-26T01:14:45;8.50;99.90
8313;DHT22;4194;43.408;24.626;2024-02-26T01:17:10;8.40;99.90
8313;DHT22;4194;43.408;24.626;2024-02-26T01:19:36;8.80;99.90
8313;DHT22;4194;43.408;24.626;2024-02-26T01:22:02;8.30;99.90
8313;DHT22;4194;43.408;24.626;2024-02-26T01:24:28;8.40;99.90
8313;DHT22;4194;43.408;24.626;2024-02-26T01:26:54;8.40;99.90
8313;DHT22;4194;43.408;24.626;2024-02-26T01:29:20;8.40;99.90
8313;DHT22;4194;43.408;24.626;2024-02-26T01:31:45;8.40;99.90
8313;DHT22;4194;43.408;24.626;2024-02-26T01:34:11;8.30;99.90
8313;DHT22;4194;43.408;24.626;2024-02-26T01:36:37;8.10;99.90
8313;DHT22;4194;43.408;24.626;2024-02-26T01:39:02;8.20;99.90
8313;DHT22;4194;43.408;24.626;2024-02-26T01:41:29;8.30;99.90
8313;DHT22;4194;43.408;24.626;2024-02-26T01:43:54;8.50;99.90
8313;DHT22;4194;43.408;24.626;2024-02-26T01:46:20;8.70;99.90
8313;DHT22;4194;43.408;24.626;2024-02-26T01:48:47;8.30;99.90
8313;DHT22;4194;43.408;24.626;2024-02-26T01:51:15;8.20;99.90
8313;DHT22;4194;43.408;24.626;2024-02-26T01:53:43;7.70;99.90
8313;DHT22;4194;43.408;24.626;2024-02-26T01:56:08;8.20;99.90
8313;DHT22;4194;43.408;24.626;2024-02-26T01:58:35;8.10;99.90
8313;DHT22;4194;43.408;24.626;2024-02-26T02:01:02;8.50;99.90
8313;DHT22;4194;43.408;24.626;2024-02-26T02:03:28;8.20;99.90
8313;DHT22;4194;43.408;24.626;2024-02-26T02:05:55;8.20;99.90
8313;DHT22;4194;43.408;24.626;2024-02-26T02:08:22;8.10;99.90
8313;DHT22;4194;43.408;24.626;2024-02-26T02:10:49;8.20;99.90
8313;DHT22;4194;43.408;24.626;2024-02-26T02:13:14;8.10;99.90
8313;DHT22;4194;43.408;24.626;2024-02-26T02:15:40;8.40;99.90
8313;DHT22;4194;43.408;24.626;2024-02-26T02:18:06;8.10;99.90
8313;DHT22;4194;43.408;24.626;2024-02-26T02:20:35;8.20;99.90
8313;DHT22;4194;43.408;24.626;2024-02-26T02:23:02;8.40;99.90
8313;DHT22;4194;43.408;24.626;2024-02-26T02:25:27;8.20;99.90
8313;DHT22;4194;43.408;24.626;2024-02-26T02:27:54;8.20;99.90
8313;DHT22;4194;43.408;24.626;2024-02-26T02:30:26;8.10;99.90
8313;DHT22;4194;43.408;24.626;2024-02-26T02:32:53;7.50;99.90
8313;DHT22;4194;43.408;24.626;2024-02-26T02:35:19;8.00;99.90
8313;DHT22;4194;43.408;24.626;2024-02-26T02:37:44;8.00;99.90
8313;DHT22;4194;43.408;24.626;2024-02-26T02:40:10;7.50;99.90
8313;DHT22;4194;43.408;24.626;2024-02-26T02:42:36;8.20;99.90
8313;DHT22;4194;43.408;24.626;2024-02-26T02:45:02;7.90;99.90
8313;DHT22;4194;43.408;24.626;2024-02-26T02:47:27;8.20;99.90
8313;DHT22;4194;43.408;24.626;2024-02-26T02:49:53;7.80;99.90
8313;DHT22;4194;43.408;24.626;2024-02-26T02:52:19;8.00;99.90
8313;DHT22;4194;43.408;24.626;2024-02-26T02:54:44;7.80;99.90
8313;DHT22;4194;43.408;24.626;2024-02-26T02:57:12;8.00;99.90
8313;DHT22;4194;43.408;24.626;2024-02-26T02:59:38;7.80;99.90
8313;DHT22;4194;43.408;24.626;2024-02-26T03:02:04;8.00;99.90
8313;DHT22;4194;43.408;24.626;2024-02-26T03:04:30;8.30;99.90
8313;DHT22;4194;43.408;24.626;2024-02-26T03:06:56;7.80;99.90
8313;DHT22;4194;43.408;24.626;2024-02-26T03:09:21;8.00;99.90
8313;DHT22;4194;43.408;24.626;2024-02-26T03:11:47;8.00;99.90
8313;DHT22;4194;43.408;24.626;2024-02-26T03:14:13;8.30;99.90
8313;DHT22;4194;43.408;24.626;2024-02-26T03:16:38;8.40;99.90
8313;DHT22;4194;43.408;24.626;2024-02-26T03:19:04;8.00;99.90
8313;DHT22;4194;43.408;24.626;2024-02-26T03:21:30;8.00;99.90
8313;DHT22;4194;43.408;24.626;2024-02-26T03:23:55;7.90;99.90
8313;DHT22;4194;43.408;24.626;2024-02-26T03:26:22;8.00;99.90
8313;DHT22;4194;43.408;24.626;2024-02-26T03:28:48;8.00;99.90
8313;DHT22;4194;43.408;24.626;2024-02-26T03:31:14;8.10;99.90
8313;DHT22;4194;43.408;24.626;2024-02-26T03:33:40;8.00;99.90
8313;DHT22;4194;43.408;24.626;2024-02-26T03:36:06;8.00;99.90
8313;DHT22;4194;43.408;24.626;2024-02-26T03:38:33;8.00;99.90
8313;DHT22;4194;43.408;24.626;2024-02-26T03:40:58;7.60;99.90
8313;DHT22;4194;43.408;24.626;2024-02-26T03:43:24;8.50;99.90
8313;DHT22;4194;43.408;24.626;2024-02-26T03:45:50;8.10;99.90
8313;DHT22;4194;43.408;24.626;2024-02-26T03:48:16;8.10;99.90
8313;DHT22;4194;43.408;24.626;2024-02-26T03:50:41;8.10;99.90
8313;DHT22;4194;43.408;24.626;2024-02-26T03:53:07;8.60;99.90
8313;DHT22;4194;43.408;24.626;2024-02-26T03:55:34;8.10;99.90
8313;DHT22;4194;43.408;24.626;2024-02-26T03:58:00;8.20;99.90
8313;DHT22;4194;43.408;24.626;2024-02-26T04:00:26;7.70;99.90
8313;DHT22;4194;43.408;24.626;2024-02-26T04:02:54;8.20;99.90
8313;DHT22;4194;43.408;24.626;2024-02-26T04:05:20;8.40;99.90
8313;DHT22;4194;43.408;24.626;2024-02-26T04:07:45;8.70;99.90
8313;DHT22;4194;43.408;24.626;2024-02-26T04:10:11;8.30;99.90
8313;DHT22;4194;43.408;24.626;2024-02-26T04:12:41;8.40;99.90
8313;DHT22;4194;43.408;24.626;2024-02-26T04:15:08;8.30;99.90
8313;DHT22;4194;43.408;24.626;2024-02-26T04:17:34;7.90;99.90
8313;DHT22;4194;43.408;24.626;2024-02-26T04:19:59;8.30;99.90
8313;DHT22;4194;43.408;24.626;2024-02-26T04:22:25;8.60;99.90
8313;DHT22;4194;43.408;24.626;2024-02-26T04:24:51;7.90;99.90
8313;DHT22;4194;43.408;24.626;2024-02-26T04:27:16;8.20;99.90
8313;DHT22;4194;43.408;24.626;2024-02-26T04:29:42;8.40;99.90
8313;DHT22;4194;43.408;24.626;2024-02-26T04:32:08;8.00;99.90
8313;DHT22;4194;43.408;24.626;2024-02-26T04:34:33;8.30;99.90
8313;DHT22;4194;43.408;24.626;2024-02-26T04:36:59;8.30;99.90
8313;DHT22;4194;43.408;24.626;2024-02-26T04:39:25;8.70;99.90
8313;DHT22;4194;43.408;24.626;2024-02-26T04:41:51;8.40;99.90
8313;DHT22;4194;43.408;24.626;2024-02-26T04:44:17;8.30;99.90
8313;DHT22;4194;43.408;24.626;2024-02-26T04:46:42;8.60;99.90
8313;DHT22;4194;43.408;24.626;2024-02-26T04:49:09;8.50;99.90
8313;DHT22;4194;43.408;24.626;2024-02-26T04:51:34;8.30;99.90
8313;DHT22;4194;43.408;24.626;2024-02-26T04:54:00;8.30;99.90
8313;DHT22;4194;43.408;24.626;2024-02-26T04:56:26;8.60;99.90
8313;DHT22;4194;43.408;24.626;2024-02-26T04:58:51;8.20;99.90
8313;DHT22;4194;43.408;24.626;2024-02-26T05:01:17;8.00;99.90
8313;DHT22;4194;43.408;24.626;2024-02-26T05:03:44;8.50;99.90
8313;DHT22;4194;43.408;24.626;2024-02-26T05:06:10;8.00;99.90
8313;DHT22;4194;43.408;24.626;2024-02-26T05:08:35;8.20;99.90
8313;DHT22;4194;43.408;24.626;2024-02-26T05:11:03;8.10;99.90
8313;DHT22;4194;43.408;24.626;2024-02-26T05:13:29;8.20;99.90
8313;DHT22;4194;43.408;24.626;2024-02-26T05:15:55;8.50;99.90
8313;DHT22;4194;43.408;24.626;2024-02-26T05:18:22;8.30;99.90
8313;DHT22;4194;43.408;24.626;2024-02-26T05:20:47;8.30;99.90
8313;DHT22;4194;43.408;24.626;2024-02-26T05:23:13;8.30;99.90
8313;DHT22;4194;43.408;24.626;2024-02-26T05:25:39;8.30;99.90
8313;DHT22;4194;43.408;24.626;2024-02-26T05:28:05;8.30;99.90
8313;DHT22;4194;43.408;24.626;2024-02-26T05:30:30;8.30;99.90
8313;DHT22;4194;43.408;24.626;2024-02-26T05:32:56;8.40;99.90
8313;DHT22;4194;43.408;24.626;2024-02-26T05:35:22;8.30;99.90
8313;DHT22;4194;43.408;24.626;2024-02-26T05:37:47;8.50;99.90
8313;DHT22;4194;43.408;24.626;2024-02-26T05:40:13;8.50;99.90
8313;DHT22;4194;43.408;24.626;2024-02-26T05:42:39;8.60;99.90
8313;DHT22;4194;43.408;24.626;2024-02-26T05:45:05;8.70;99.90
8313;DHT22;4194;43.408;24.626;2024-02-26T05:47:35;8.70;99.90
8313;DHT22;4194;43.408;24.626;2024-02-26T05:50:01;8.80;99.90
8313;DHT22;4194;43.408;24.626;2024-02-26T05:52:27;8.90;99.90
8313;DHT22;4194;43.408;24.626;2024-02-26T05:54:55;8.90;99.90
8313;DHT22;4194;43.408;24.626;2024-02-26T05:59:46;9.00;99.90
8313;DHT22;4194;43.408;24.626;2024-02-26T06:02:12;9.10;99.90
8313;DHT22;4194;43.408;24.626;2024-02-26T06:04:38;9.10;99.90
8313;DHT22;4194;43.408;24.626;2024-02-26T06:07:04;9.20;99.90
8313;DHT22;4194;43.408;24.626;2024-02-26T06:09:30;9.20;99.90
8313;DHT22;4194;43.408;24.626;2024-02-26T06:11:56;9.20;99.90
8313;DHT22;4194;43.408;24.626;2024-02-26T06:14:21;9.40;99.90
8313;DHT22;4194;43.408;24.626;2024-02-26T06:19:13;9.50;99.90
8313;DHT22;4194;43.408;24.626;2024-02-26T06:21:39;9.50;99.90
8313;DHT22;4194;43.408;24.626;2024-02-26T06:24:05;9.70;99.90
8313;DHT22;4194;43.408;24.626;2024-02-26T06:26:30;11.40;99.90
8313;DHT22;4194;43.408;24.626;2024-02-26T06:28:58;8.60;99.90
8313;DHT22;4194;43.408;24.626;2024-02-26T06:31:24;9.70;99.90
8313;DHT22;4194;43.408;24.626;2024-02-26T06:33:53;9.70;99.90
8313;DHT22;4194;43.408;24.626;2024-02-26T06:36:19;9.60;99.90
8313;DHT22;4194;43.408;24.626;2024-02-26T06:38:44;9.90;99.90
8313;DHT22;4194;43.408;24.626;2024-02-26T06:41:10;10.00;99.90
8313;DHT22;4194;43.408;24.626;2024-02-26T06:43:36;10.00;99.90
8313;DHT22;4194;43.408;24.626;2024-02-26T06:46:02;11.60;99.90
8313;DHT22;4194;43.408;24.626;2024-02-26T06:48:28;10.10;99.90
8313;DHT22;4194;43.408;24.626;2024-02-26T06:50:54;10.20;99.90
8313;DHT22;4194;43.408;24.626;2024-02-26T06:53:19;10.30;99.90
8313;DHT22;4194;43.408;24.626;2024-02-26T06:55:45;10.40;99.90
8313;DHT22;4194;43.408;24.626;2024-02-26T06:58:11;10.50;99.90
8313;DHT22;4194;43.408;24.626;2024-02-26T07:00:36;12.10;99.90
8313;DHT22;4194;43.408;24.626;2024-02-26T07:03:02;10.80;99.90
8313;DHT22;4194;43.408;24.626;2024-02-26T07:05:28;10.80;99.90
8313;DHT22;4194;43.408;24.626;2024-02-26T07:07:54;11.10;99.90
8313;DHT22;4194;43.408;24.626;2024-02-26T07:10:20;11.50;99.90
8313;DHT22;4194;43.408;24.626;2024-02-26T07:12:46;11.30;99.90
8313;DHT22;4194;43.408;24.626;2024-02-26T07:17:38;11.20;99.90
8313;DHT22;4194;43.408;24.626;2024-02-26T07:20:08;11.20;99.90
8313;DHT22;4194;43.408;24.626;2024-02-26T07:22:34;11.50;99.90
8313;DHT22;4194;43.408;24.626;2024-02-26T07:24:59;11.40;99.90
8313;DHT22;4194;43.408;24.626;2024-02-26T07:27:25;12.00;99.90
8313;DHT22;4194;43.408;24.626;2024-02-26T07:29:51;11.50;99.90
8313;DHT22;4194;43.408;24.626;2024-02-26T07:32:16;11.80;99.90
8313;DHT22;4194;43.408;24.626;2024-02-26T07:34:42;12.20;99.90
8313;DHT22;4194;43.408;24.626;2024-02-26T07:37:10;11.80;99.90
8313;DHT22;4194;43.408;24.626;2024-02-26T07:39:36;11.10;99.90
8313;DHT22;4194;43.408;24.626;2024-02-26T07:42:02;11.90;99.90
8313;DHT22;4194;43.408;24.626;2024-02-26T07:44:28;12.00;99.90
8313;DHT22;4194;43.408;24.626;2024-02-26T07:46:54;12.30;99.90
8313;DHT22;4194;43.408;24.626;2024-02-26T07:49:20;12.40;99.90
8313;DHT22;4194;43.408;24.626;2024-02-26T07:51:45;12.50;99.90
8313;DHT22;4194;43.408;24.626;2024-02-26T07:54:11;11.90;99.90
8313;DHT22;4194;43.408;24.626;2024-02-26T07:56:37;12.50;99.90
8313;DHT22;4194;43.408;24.626;2024-02-26T07:59:03;12.60;99.90
8313;DHT22;4194;43.408;24.626;2024-02-26T08:01:29;12.60;99.90
8313;DHT22;4194;43.408;24.626;2024-02-26T08:03:54;12.50;99.90
8313;DHT22;4194;43.408;24.626;2024-02-26T08:06:21;12.40;99.90
8313;DHT22;4194;43.408;24.626;2024-02-26T08:08:46;12.40;99.90
8313;DHT22;4194;43.408;24.626;2024-02-26T08:11:14;12.30;99.90
8313;DHT22;4194;43.408;24.626;2024-02-26T08:13:41;12.20;99.90
8313;DHT22;4194;43.408;24.626;2024-02-26T08:18:33;12.30;99.90
8313;DHT22;4194;43.408;24.626;2024-02-26T08:20:58;12.30;99.90
8313;DHT22;4194;43.408;24.626;2024-02-26T08:23:24;12.30;99.90
8313;DHT22;4194;43.408;24.626;2024-02-26T08:25:50;12.40;99.90
8313;DHT22;4194;43.408;24.626;2024-02-26T08:28:16;12.90;99.90
8313;DHT22;4194;43.408;24.626;2024-02-26T08:30:43;12.50;99.90
8313;DHT22;4194;43.408;24.626;2024-02-26T08:33:09;12.30;99.90
8313;DHT22;4194;43.408;24.626;2024-02-26T08:35:36;12.20;99.90
8313;DHT22;4194;43.408;24.626;2024-02-26T08:38:02;12.10;99.90
8313;DHT22;4194;43.408;24.626;2024-02-26T08:40:29;12.40;99.90
8313;DHT22;4194;43.408;24.626;2024-02-26T08:42:55;12.40;99.90
8313;DHT22;4194;43.408;24.626;2024-02-26T08:45:21;12.80;99.90
8313;DHT22;4194;43.408;24.626;2024-02-26T08:47:47;12.70;99.90
8313;DHT22;4194;43.408;24.626;2024-02-26T08:50:14;12.80;99.90
8313;DHT22;4194;43.408;24.626;2024-02-26T08:52:40;12.90;99.90
8313;DHT22;4194;43.408;24.626;2024-02-26T08:55:06;13.00;99.90
8313;DHT22;4194;43.408;24.626;2024-02-26T08:57:34;13.10;99.90
8313;DHT22;4194;43.408;24.626;2024-02-26T09:00:03;13.60;99.90
8313;DHT22;4194;43.408;24.626;2024-02-26T09:02:30;14.00;99.90
8313;DHT22;4194;43.408;24.626;2024-02-26T09:04:56;13.60;99.90
8313;DHT22;4194;43.408;24.626;2024-02-26T09:07:22;13.50;99.90
8313;DHT22;4194;43.408;24.626;2024-02-26T09:09:48;13.70;99.90
8313;DHT22;4194;43.408;24.626;2024-02-26T09:12:13;13.80;99.90
8313;DHT22;4194;43.408;24.626;2024-02-26T09:14:39;13.90;99.90
8313;DHT22;4194;43.408;24.626;2024-02-26T09:17:05;14.00;99.90
8313;DHT22;4194;43.408;24.626;2024-02-26T09:19:33;13.80;99.90
8313;DHT22;4194;43.408;24.626;2024-02-26T09:21:58;14.00;99.90
8313;DHT22;4194;43.408;24.626;2024-02-26T09:24:24;13.90;99.90
8313;DHT22;4194;43.408;24.626;2024-02-26T09:26:50;14.30;99.90
8313;DHT22;4194;43.408;24.626;2024-02-26T09:29:16;14.40;99.90
8313;DHT22;4194;43.408;24.626;2024-02-26T09:31:42;14.40;99.90
8313;DHT22;4194;43.408;24.626;2024-02-26T09:34:09;14.00;99.90
8313;DHT22;4194;43.408;24.626;2024-02-26T09:36:34;14.60;99.90
8313;DHT22;4194;43.408;24.626;2024-02-26T09:39:00;14.60;99.90
8313;DHT22;4194;43.408;24.626;2024-02-26T09:41:28;14.50;99.90
8313;DHT22;4194;43.408;24.626;2024-02-26T09:43:57;14.70;99.90
8313;DHT22;4194;43.408;24.626;2024-02-26T09:46:27;15.00;99.90
8313;DHT22;4194;43.408;24.626;2024-02-26T09:48:54;15.20;99.90
8313;DHT22;4194;43.408;24.626;2024-02-26T09:51:25;14.90;99.70
8313;DHT22;4194;43.408;24.626;2024-02-26T09:53:54;12.30;98.60
8313;DHT22;4194;43.408;24.626;2024-02-26T09:56:21;15.40;99.10
8313;DHT22;4194;43.408;24.626;2024-02-26T09:58:47;15.40;98.30
8313;DHT22;4194;43.408;24.626;2024-02-26T10:01:19;15.70;98.10
8313;DHT22;4194;43.408;24.626;2024-02-26T10:03:49;15.60;97.50
8313;DHT22;4194;43.408;24.626;2024-02-26T10:06:17;15.90;97.70
8313;DHT22;4194;43.408;24.626;2024-02-26T10:08:43;16.10;97.00
8313;DHT22;4194;43.408;24.626;2024-02-26T10:11:10;16.30;96.10
8313;DHT22;4194;43.408;24.626;2024-02-26T10:13:36;16.40;96.30
8313;DHT22;4194;43.408;24.626;2024-02-26T10:16:02;16.40;96.10
8313;DHT22;4194;43.408;24.626;2024-02-26T10:18:49;16.90;95.60
8313;DHT22;4194;43.408;24.626;2024-02-26T10:21:16;17.20;94.20
8313;DHT22;4194;43.408;24.626;2024-02-26T10:23:44;18.00;93.70
8313;DHT22;4194;43.408;24.626;2024-02-26T10:26:11;18.50;91.50
8313;DHT22;4194;43.408;24.626;2024-02-26T10:28:39;19.10;90.30
8313;DHT22;4194;43.408;24.626;2024-02-26T10:31:04;19.00;89.00
8313;DHT22;4194;43.408;24.626;2024-02-26T10:33:34;18.90;88.30
8313;DHT22;4194;43.408;24.626;2024-02-26T10:36:04;18.60;89.90
8313;DHT22;4194;43.408;24.626;2024-02-26T10:38:31;17.90;90.50
8313;DHT22;4194;43.408;24.626;2024-02-26T10:40:57;17.20;91.10
8313;DHT22;4194;43.408;24.626;2024-02-26T10:43:25;17.60;91.80
8313;DHT22;4194;43.408;24.626;2024-02-26T10:45:51;17.70;91.80
8313;DHT22;4194;43.408;24.626;2024-02-26T10:48:17;17.50;92.20
8313;DHT22;4194;43.408;24.626;2024-02-26T10:50:43;17.40;92.10
8313;DHT22;4194;43.408;24.626;2024-02-26T10:53:19;17.40;92.10
8313;DHT22;4194;43.408;24.626;2024-02-26T10:56:11;17.40;92.50
8313;DHT22;4194;43.408;24.626;2024-02-26T10:58:38;17.30;93.10
8313;DHT22;4194;43.408;24.626;2024-02-26T11:01:04;16.90;93.50
8313;DHT22;4194;43.408;24.626;2024-02-26T11:03:31;16.90;93.50
8313;DHT22;4194;43.408;24.626;2024-02-26T11:06:00;16.90;94.00
8313;DHT22;4194;43.408;24.626;2024-02-26T11:08:26;16.90;94.20
8313;DHT22;4194;43.408;24.626;2024-02-26T11:10:53;17.10;94.30
8313;DHT22;4194;43.408;24.626;2024-02-26T11:13:21;17.00;94.30
8313;DHT22;4194;43.408;24.626;2024-02-26T11:15:47;17.00;94.00
8313;DHT22;4194;43.408;24.626;2024-02-26T11:18:15;16.50;94.10
8313;DHT22;4194;43.408;24.626;2024-02-26T11:20:42;17.10;94.20
8313;DHT22;4194;43.408;24.626;2024-02-26T11:23:08;17.20;93.80
8313;DHT22;4194;43.408;24.626;2024-02-26T11:25:35;17.50;94.10
8313;DHT22;4194;43.408;24.626;2024-02-26T11:28:05;17.40;93.90
8313;DHT22;4194;43.408;24.626;2024-02-26T11:30:33;17.50;93.80
8313;DHT22;4194;43.408;24.626;2024-02-26T11:33:00;17.40;93.60
8313;DHT22;4194;43.408;24.626;2024-02-26T11:35:28;17.60;93.40
8313;DHT22;4194;43.408;24.626;2024-02-26T11:37:55;17.70;93.20
8313;DHT22;4194;43.408;24.626;2024-02-26T11:40:24;17.90;93.00
8313;DHT22;4194;43.408;24.626;2024-02-26T11:42:50;18.00;92.70
8313;DHT22;4194;43.408;24.626;2024-02-26T11:48:14;17.70;92.70
8313;DHT22;4194;43.408;24.626;2024-02-26T11:50:42;18.10;92.60
8313;DHT22;4194;43.408;24.626;2024-02-26T11:53:21;18.00;92.40
8313;DHT22;4194;43.408;24.626;2024-02-26T11:55:47;18.00;92.30
8313;DHT22;4194;43.408;24.626;2024-02-26T11:58:13;17.90;92.40
8313;DHT22;4194;43.408;24.626;2024-02-26T12:00:42;18.30;92.20
8313;DHT22;4194;43.408;24.626;2024-02-26T12:03:08;18.20;91.80
8313;DHT22;4194;43.408;24.626;2024-02-26T12:05:36;18.30;91.60
8313;DHT22;4194;43.408;24.626;2024-02-26T12:08:07;18.20;91.30
8313;DHT22;4194;43.408;24.626;2024-02-26T12:10:39;18.50;91.00
8313;DHT22;4194;43.408;24.626;2024-02-26T12:13:09;18.90;90.70
8313;DHT22;4194;43.408;24.626;2024-02-26T12:15:41;19.10;90.30
8313;DHT22;4194;43.408;24.626;2024-02-26T12:18:09;19.30;89.70
8313;DHT22;4194;43.408;24.626;2024-02-26T12:20:38;19.50;89.40
8313;DHT22;4194;43.408;24.626;2024-02-26T12:23:04;19.80;88.30
8313;DHT22;4194;43.408;24.626;2024-02-26T12:25:31;19.70;87.60
8313;DHT22;4194;43.408;24.626;2024-02-26T12:27:59;19.90;87.10
8313;DHT22;4194;43.408;24.626;2024-02-26T12:30:26;20.40;85.20
8313;DHT22;4194;43.408;24.626;2024-02-26T12:32:53;20.40;84.00
8313;DHT22;4194;43.408;24.626;2024-02-26T12:35:24;20.50;84.30
8313;DHT22;4194;43.408;24.626;2024-02-26T12:37:50;20.70;82.70
8313;DHT22;4194;43.408;24.626;2024-02-26T12:40:17;20.30;80.80
8313;DHT22;4194;43.408;24.626;2024-02-26T12:42:43;20.30;81.50
8313;DHT22;4194;43.408;24.626;2024-02-26T12:45:10;20.40;82.50
8313;DHT22;4194;43.408;24.626;2024-02-26T12:47:40;20.50;81.10
8313;DHT22;4194;43.408;24.626;2024-02-26T12:50:06;20.80;80.40
8313;DHT22;4194;43.408;24.626;2024-02-26T12:52:41;20.00;78.40
8313;DHT22;4194;43.408;24.626;2024-02-26T12:55:08;21.20;79.20
8313;DHT22;4194;43.408;24.626;2024-02-26T12:57:38;21.40;78.90
8313;DHT22;4194;43.408;24.626;2024-02-26T13:00:08;21.90;76.70
8313;DHT22;4194;43.408;24.626;2024-02-26T13:02:37;22.60;75.80
8313;DHT22;4194;43.408;24.626;2024-02-26T13:05:06;22.60;73.20
8313;DHT22;4194;43.408;24.626;2024-02-26T13:07:33;22.60;73.70
8313;DHT22;4194;43.408;24.626;2024-02-26T13:10:00;23.00;72.60
8313;DHT22;4194;43.408;24.626;2024-02-26T13:12:26;22.90;73.40
8313;DHT22;4194;43.408;24.626;2024-02-26T13:15:04;22.80;70.50
8313;DHT22;4194;43.408;24.626;2024-02-26T13:17:32;22.90;70.60
8313;DHT22;4194;43.408;24.626;2024-02-26T13:19:58;22.70;69.10
8313;DHT22;4194;43.408;24.626;2024-02-26T13:22:24;22.70;70.70
8313;DHT22;4194;43.408;24.626;2024-02-26T13:24:57;22.60;70.00
8313;DHT22;4194;43.408;24.626;2024-02-26T13:27:23;22.70;69.50
8313;DHT22;4194;43.408;24.626;2024-02-26T13:30:01;22.80;69.20
8313;DHT22;4194;43.408;24.626;2024-02-26T13:32:26;22.40;69.30
8313;DHT22;4194;43.408;24.626;2024-02-26T13:35:05;22.20;69.70
8313;DHT22;4194;43.408;24.626;2024-02-26T13:37:31;21.90;69.80
8313;DHT22;4194;43.408;24.626;2024-02-26T13:39:57;21.90;69.30
8313;DHT22;4194;43.408;24.626;2024-02-26T13:42:22;21.60;67.80
8313;DHT22;4194;43.408;24.626;2024-02-26T13:44:48;21.20;67.50
8313;DHT22;4194;43.408;24.626;2024-02-26T13:47:14;21.40;68.10
8313;DHT22;4194;43.408;24.626;2024-02-26T13:49:40;21.10;68.80
8313;DHT22;4194;43.408;24.626;2024-02-26T13:52:06;21.00;69.10
8313;DHT22;4194;43.408;24.626;2024-02-26T13:54:31;21.00;69.80
8313;DHT22;4194;43.408;24.626;2024-02-26T13:56:58;20.40;70.40
8313;DHT22;4194;43.408;24.626;2024-02-26T13:59:23;20.40;71.90
8313;DHT22;4194;43.408;24.626;2024-02-26T14:01:49;19.90;71.90
8313;DHT22;4194;43.408;24.626;2024-02-26T14:04:15;19.90;72.00
8313;DHT22;4194;43.408;24.626;2024-02-26T14:06:42;20.10;71.80
8313;DHT22;4194;43.408;24.626;2024-02-26T14:09:07;20.00;72.00
8313;DHT22;4194;43.408;24.626;2024-02-26T14:11:34;20.10;72.90
8313;DHT22;4194;43.408;24.626;2024-02-26T14:14:00;20.00;73.60
8313;DHT22;4194;43.408;24.626;2024-02-26T14:16:25;19.70;74.50
8313;DHT22;4194;43.408;24.626;2024-02-26T14:18:51;19.60;75.10
8313;DHT22;4194;43.408;24.626;2024-02-26T14:21:17;19.60;75.70
8313;DHT22;4194;43.408;24.626;2024-02-26T14:23:42;19.60;76.50
8313;DHT22;4194;43.408;24.626;2024-02-26T14:26:10;19.50;77.60
8313;DHT22;4194;43.408;24.626;2024-02-26T14:28:36;19.20;78.50
8313;DHT22;4194;43.408;24.626;2024-02-26T14:31:01;19.10;79.80
8313;DHT22;4194;43.408;24.626;2024-02-26T14:33:28;18.90;79.70
8313;DHT22;4194;43.408;24.626;2024-02-26T14:35:53;18.90;79.80
8313;DHT22;4194;43.408;24.626;2024-02-26T14:38:19;18.90;81.20
8313;DHT22;4194;43.408;24.626;2024-02-26T14:40:44;18.70;81.90
8313;DHT22;4194;43.408;24.626;2024-02-26T14:43:11;18.60;82.80
8313;DHT22;4194;43.408;24.626;2024-02-26T14:45:37;18.50;83.50
8313;DHT22;4194;43.408;24.626;2024-02-26T14:48:03;18.40;83.50
8313;DHT22;4194;43.408;24.626;2024-02-26T14:50:29;18.30;83.70
8313;DHT22;4194;43.408;24.626;2024-02-26T14:52:55;18.20;84.00
8313;DHT22;4194;43.408;24.626;2024-02-26T14:55:21;18.20;87.50
8313;DHT22;4194;43.408;24.626;2024-02-26T14:57:47;17.80;88.70
8313;DHT22;4194;43.408;24.626;2024-02-26T15:00:12;17.60;89.00
8313;DHT22;4194;43.408;24.626;2024-02-26T15:02:38;17.70;89.80
8313;DHT22;4194;43.408;24.626;2024-02-26T15:05:04;17.50;90.40
8313;DHT22;4194;43.408;24.626;2024-02-26T15:07:30;17.00;90.50
8313;DHT22;4194;43.408;24.626;2024-02-26T15:09:56;17.10;91.60
8313;DHT22;4194;43.408;24.626;2024-02-26T15:12:24;17.00;91.60
8313;DHT22;4194;43.408;24.626;2024-02-26T15:14:50;17.10;92.30
8313;DHT22;4194;43.408;24.626;2024-02-26T15:17:16;16.90;92.40
8313;DHT22;4194;43.408;24.626;2024-02-26T15:19:41;16.40;92.50
8313;DHT22;4194;43.408;24.626;2024-02-26T15:22:07;16.70;93.10
8313;DHT22;4194;43.408;24.626;2024-02-26T15:24:33;16.70;93.30
8313;DHT22;4194;43.408;24.626;2024-02-26T15:26:58;16.50;93.60
8313;DHT22;4194;43.408;24.626;2024-02-26T15:29:24;16.30;93.90
8313;DHT22;4194;43.408;24.626;2024-02-26T15:31:50;16.40;94.20
8313;DHT22;4194;43.408;24.626;2024-02-26T15:34:15;16.20;94.40
8313;DHT22;4194;43.408;24.626;2024-02-26T15:36:41;16.40;95.00
8313;DHT22;4194;43.408;24.626;2024-02-26T15:39:07;16.10;95.30
8313;DHT22;4194;43.408;24.626;2024-02-26T15:41:33;16.00;95.60
8313;DHT22;4194;43.408;24.626;2024-02-26T15:43:58;16.10;96.10
8313;DHT22;4194;43.408;24.626;2024-02-26T15:46:26;15.90;96.50
8313;DHT22;4194;43.408;24.626;2024-02-26T15:48:52;15.80;96.80
8313;DHT22;4194;43.408;24.626;2024-02-26T15:51:21;15.70;97.20
8313;DHT22;4194;43.408;24.626;2024-02-26T15:53:47;15.60;97.50
8313;DHT22;4194;43.408;24.626;2024-02-26T15:56:14;15.70;98.10
8313;DHT22;4194;43.408;24.626;2024-02-26T15:58:40;15.60;98.60
8313;DHT22;4194;43.408;24.626;2024-02-26T16:01:06;15.40;99.10